sensor_id;sensor_type;location;lat;lon;timestamp;P1;durP1;ratioP1;P2;durP2;ratioP2
15603;SDS011;7902;49.042;9.092;2022-11-20T00:01:19;21.83;;;9.50;;
15603;SDS011;7902;49.042;9.092;2022-11-20T00:03:50;27.10;;;10.57;;
15603;SDS011;7902;49.042;9.092;2022-11-20T00:06:18;30.40;;;14.07;;
15603;SDS011;7902;49.042;9.092;2022-11-20T00:08:45;24.47;;;10.87;;
15603;SDS011;7902;49.042;9.092;2022-11-20T00:11:13;68.17;;;28.50;;
15603;SDS011;7902;49.042;9.092;2022-11-20T00:13:42;27.90;;;13.03;;
15603;SDS011;7902;49.042;9.092;2022-11-20T00:16:10;23.93;;;10.70;;
15603;SDS011;7902;49.042;9.092;2022-11-20T00:18:39;21.53;;;8.90;;
15603;SDS011;7902;49.042;9.092;2022-11-20T00:21:12;21.17;;;8.87;;
15603;SDS011;7902;49.042;9.092;2022-11-20T00:23:40;42.00;;;14.83;;
15603;SDS011;7902;49.042;9.092;2022-11-20T00:26:07;42.67;;;16.40;;
15603;SDS011;7902;49.042;9.092;2022-11-20T00:28:35;28.87;;;14.70;;
15603;SDS011;7902;49.042;9.092;2022-11-20T00:31:09;24.70;;;12.20;;
15603;SDS011;7902;49.042;9.092;2022-11-20T00:33:42;20.40;;;9.80;;
15603;SDS011;7902;49.042;9.092;2022-11-20T00:36:12;24.27;;;9.90;;
15603;SDS011;7902;49.042;9.092;2022-11-20T00:38:40;25.97;;;11.50;;
15603;SDS011;7902;49.042;9.092;2022-11-20T00:41:08;23.50;;;9.73;;
15603;SDS011;7902;49.042;9.092;2022-11-20T00:43:35;32.93;;;11.10;;
15603;SDS011;7902;49.042;9.092;2022-11-20T00:46:06;30.10;;;11.40;;
15603;SDS011;7902;49.042;9.092;2022-11-20T00:48:37;27.00;;;11.60;;
15603;SDS011;7902;49.042;9.092;2022-11-20T00:51:03;25.37;;;11.37;;
15603;SDS011;7902;49.042;9.092;2022-11-20T00:53:29;22.23;;;9.97;;
15603;SDS011;7902;49.042;9.092;2022-11-20T00:55:59;28.63;;;10.00;;
15603;SDS011;7902;49.042;9.092;2022-11-20T00:58:33;31.90;;;11.70;;
15603;SDS011;7902;49.042;9.092;2022-11-20T01:03:32;49.03;;;19.23;;
15603;SDS011;7902;49.042;9.092;2022-11-20T01:06:02;31.43;;;14.30;;
15603;SDS011;7902;49.042;9.092;2022-11-20T01:08:31;40.13;;;15.40;;
15603;SDS011;7902;49.042;9.092;2022-11-20T01:11:05;41.03;;;12.93;;
15603;SDS011;7902;49.042;9.092;2022-11-20T01:13:32;30.97;;;12.87;;
15603;SDS011;7902;49.042;9.092;2022-11-20T01:16:15;36.50;;;12.90;;
15603;SDS011;7902;49.042;9.092;2022-11-20T01:18:44;32.93;;;12.77;;
15603;SDS011;7902;49.042;9.092;2022-11-20T01:21:33;33.60;;;11.40;;
15603;SDS011;7902;49.042;9.092;2022-11-20T01:23:59;31.93;;;12.97;;
15603;SDS011;7902;49.042;9.092;2022-11-20T01:26:27;28.40;;;11.50;;
15603;SDS011;7902;49.042;9.092;2022-11-20T01:28:55;30.47;;;12.57;;
15603;SDS011;7902;49.042;9.092;2022-11-20T01:31:29;25.77;;;11.00;;
15603;SDS011;7902;49.042;9.092;2022-11-20T01:34:00;32.47;;;12.60;;
15603;SDS011;7902;49.042;9.092;2022-11-20T01:36:28;42.27;;;18.53;;
15603;SDS011;7902;49.042;9.092;2022-11-20T01:38:56;77.53;;;29.03;;
15603;SDS011;7902;49.042;9.092;2022-11-20T01:41:25;51.43;;;23.60;;
15603;SDS011;7902;49.042;9.092;2022-11-20T01:44:12;78.10;;;36.80;;
15603;SDS011;7902;49.042;9.092;2022-11-20T01:46:42;42.03;;;19.03;;
15603;SDS011;7902;49.042;9.092;2022-11-20T01:49:27;41.50;;;14.83;;
15603;SDS011;7902;49.042;9.092;2022-11-20T01:52:05;90.77;;;37.30;;
15603;SDS011;7902;49.042;9.092;2022-11-20T01:54:41;150.53;;;59.67;;
15603;SDS011;7902;49.042;9.092;2022-11-20T01:57:12;46.90;;;17.47;;
15603;SDS011;7902;49.042;9.092;2022-11-20T01:59:40;45.47;;;19.23;;
15603;SDS011;7902;49.042;9.092;2022-11-20T02:02:13;53.00;;;22.47;;
15603;SDS011;7902;49.042;9.092;2022-11-20T02:04:40;30.97;;;12.80;;
15603;SDS011;7902;49.042;9.092;2022-11-20T02:07:06;33.00;;;12.70;;
15603;SDS011;7902;49.042;9.092;2022-11-20T02:09:32;40.40;;;15.53;;
15603;SDS011;7902;49.042;9.092;2022-11-20T02:12:00;28.67;;;12.60;;
15603;SDS011;7902;49.042;9.092;2022-11-20T02:14:27;29.30;;;13.17;;
15603;SDS011;7902;49.042;9.092;2022-11-20T02:16:53;24.87;;;10.17;;
15603;SDS011;7902;49.042;9.092;2022-11-20T02:19:27;23.93;;;10.07;;
15603;SDS011;7902;49.042;9.092;2022-11-20T02:22:02;23.70;;;10.73;;
15603;SDS011;7902;49.042;9.092;2022-11-20T02:24:37;27.67;;;10.77;;
15603;SDS011;7902;49.042;9.092;2022-11-20T02:27:06;25.43;;;12.00;;
15603;SDS011;7902;49.042;9.092;2022-11-20T02:32:19;29.20;;;11.67;;
15603;SDS011;7902;49.042;9.092;2022-11-20T02:34:45;23.97;;;10.23;;
15603;SDS011;7902;49.042;9.092;2022-11-20T02:37:11;25.87;;;10.70;;
15603;SDS011;7902;49.042;9.092;2022-11-20T02:39:38;26.60;;;11.20;;
15603;SDS011;7902;49.042;9.092;2022-11-20T02:42:05;32.80;;;14.30;;
15603;SDS011;7902;49.042;9.092;2022-11-20T02:44:31;31.27;;;13.90;;
15603;SDS011;7902;49.042;9.092;2022-11-20T02:46:57;27.60;;;11.17;;
15603;SDS011;7902;49.042;9.092;2022-11-20T02:49:24;32.77;;;13.50;;
15603;SDS011;7902;49.042;9.092;2022-11-20T02:51:51;24.93;;;10.53;;
15603;SDS011;7902;49.042;9.092;2022-11-20T02:54:17;22.03;;;11.33;;
15603;SDS011;7902;49.042;9.092;2022-11-20T02:56:43;23.40;;;10.37;;
15603;SDS011;7902;49.042;9.092;2022-11-20T02:59:09;27.93;;;10.27;;
15603;SDS011;7902;49.042;9.092;2022-11-20T03:01:35;20.77;;;9.50;;
15603;SDS011;7902;49.042;9.092;2022-11-20T03:04:01;22.90;;;9.30;;
15603;SDS011;7902;49.042;9.092;2022-11-20T03:06:27;21.90;;;9.80;;
15603;SDS011;7902;49.042;9.092;2022-11-20T03:08:53;19.63;;;9.00;;
15603;SDS011;7902;49.042;9.092;2022-11-20T03:11:19;19.10;;;8.07;;
15603;SDS011;7902;49.042;9.092;2022-11-20T03:13:46;20.63;;;8.07;;
15603;SDS011;7902;49.042;9.092;2022-11-20T03:16:13;19.73;;;7.60;;
15603;SDS011;7902;49.042;9.092;2022-11-20T03:18:41;16.73;;;7.03;;
15603;SDS011;7902;49.042;9.092;2022-11-20T03:21:08;17.70;;;7.40;;
15603;SDS011;7902;49.042;9.092;2022-11-20T03:23:35;18.87;;;7.73;;
15603;SDS011;7902;49.042;9.092;2022-11-20T03:26:08;17.17;;;6.70;;
15603;SDS011;7902;49.042;9.092;2022-11-20T03:28:36;19.20;;;6.67;;
15603;SDS011;7902;49.042;9.092;2022-11-20T03:31:06;16.23;;;7.43;;
15603;SDS011;7902;49.042;9.092;2022-11-20T03:33:37;17.70;;;7.37;;
15603;SDS011;7902;49.042;9.092;2022-11-20T03:36:04;17.53;;;7.10;;
15603;SDS011;7902;49.042;9.092;2022-11-20T03:38:32;16.90;;;7.40;;
15603;SDS011;7902;49.042;9.092;2022-11-20T03:41:09;14.20;;;5.87;;
15603;SDS011;7902;49.042;9.092;2022-11-20T03:43:37;18.40;;;7.90;;
15603;SDS011;7902;49.042;9.092;2022-11-20T03:46:03;16.00;;;7.37;;
15603;SDS011;7902;49.042;9.092;2022-11-20T03:48:30;15.83;;;6.63;;
15603;SDS011;7902;49.042;9.092;2022-11-20T03:51:06;15.80;;;6.47;;
15603;SDS011;7902;49.042;9.092;2022-11-20T03:53:33;14.50;;;6.50;;
15603;SDS011;7902;49.042;9.092;2022-11-20T03:55:59;14.77;;;5.90;;
15603;SDS011;7902;49.042;9.092;2022-11-20T03:58:25;14.43;;;5.90;;
15603;SDS011;7902;49.042;9.092;2022-11-20T04:00:51;14.40;;;6.10;;
15603;SDS011;7902;49.042;9.092;2022-11-20T04:03:17;14.83;;;6.23;;
15603;SDS011;7902;49.042;9.092;2022-11-20T04:05:43;22.43;;;6.40;;
15603;SDS011;7902;49.042;9.092;2022-11-20T04:08:09;20.43;;;6.93;;
15603;SDS011;7902;49.042;9.092;2022-11-20T04:10:35;14.53;;;5.33;;
15603;SDS011;7902;49.042;9.092;2022-11-20T04:13:01;13.73;;;4.70;;
15603;SDS011;7902;49.042;9.092;2022-11-20T04:15:27;12.30;;;4.70;;
15603;SDS011;7902;49.042;9.092;2022-11-20T04:17:53;13.47;;;3.83;;
15603;SDS011;7902;49.042;9.092;2022-11-20T04:20:19;9.67;;;3.37;;
15603;SDS011;7902;49.042;9.092;2022-11-20T04:22:45;14.77;;;4.03;;
15603;SDS011;7902;49.042;9.092;2022-11-20T04:25:11;10.90;;;3.00;;
15603;SDS011;7902;49.042;9.092;2022-11-20T04:27:37;9.10;;;2.63;;
15603;SDS011;7902;49.042;9.092;2022-11-20T04:30:03;9.27;;;2.40;;
15603;SDS011;7902;49.042;9.092;2022-11-20T04:32:29;11.40;;;2.97;;
15603;SDS011;7902;49.042;9.092;2022-11-20T04:34:55;10.90;;;3.00;;
15603;SDS011;7902;49.042;9.092;2022-11-20T04:37:21;10.33;;;2.60;;
15603;SDS011;7902;49.042;9.092;2022-11-20T04:39:47;12.43;;;2.60;;
15603;SDS011;7902;49.042;9.092;2022-11-20T04:42:13;11.00;;;3.00;;
15603;SDS011;7902;49.042;9.092;2022-11-20T04:44:54;12.60;;;3.80;;
15603;SDS011;7902;49.042;9.092;2022-11-20T04:47:20;12.20;;;3.10;;
15603;SDS011;7902;49.042;9.092;2022-11-20T04:49:46;13.53;;;3.00;;
15603;SDS011;7902;49.042;9.092;2022-11-20T04:52:13;9.93;;;2.87;;
15603;SDS011;7902;49.042;9.092;2022-11-20T04:54:39;12.40;;;2.50;;
15603;SDS011;7902;49.042;9.092;2022-11-20T04:57:05;9.67;;;2.30;;
15603;SDS011;7902;49.042;9.092;2022-11-20T04:59:31;9.03;;;2.33;;
15603;SDS011;7902;49.042;9.092;2022-11-20T05:01:57;9.10;;;2.43;;
15603;SDS011;7902;49.042;9.092;2022-11-20T05:04:23;10.63;;;2.60;;
15603;SDS011;7902;49.042;9.092;2022-11-20T05:06:49;12.60;;;2.40;;
15603;SDS011;7902;49.042;9.092;2022-11-20T05:09:15;9.30;;;2.30;;
15603;SDS011;7902;49.042;9.092;2022-11-20T05:11:41;11.07;;;2.50;;
15603;SDS011;7902;49.042;9.092;2022-11-20T05:14:07;8.17;;;2.10;;
15603;SDS011;7902;49.042;9.092;2022-11-20T05:16:33;9.70;;;2.80;;
15603;SDS011;7902;49.042;9.092;2022-11-20T05:19:00;10.30;;;1.90;;
15603;SDS011;7902;49.042;9.092;2022-11-20T05:21:26;10.63;;;1.83;;
15603;SDS011;7902;49.042;9.092;2022-11-20T05:23:52;9.80;;;2.23;;
15603;SDS011;7902;49.042;9.092;2022-11-20T05:26:20;9.83;;;2.20;;
15603;SDS011;7902;49.042;9.092;2022-11-20T05:28:47;8.40;;;2.20;;
15603;SDS011;7902;49.042;9.092;2022-11-20T05:31:14;8.40;;;1.87;;
15603;SDS011;7902;49.042;9.092;2022-11-20T05:33:45;8.63;;;2.00;;
15603;SDS011;7902;49.042;9.092;2022-11-20T05:36:12;9.83;;;2.03;;
15603;SDS011;7902;49.042;9.092;2022-11-20T05:38:39;8.30;;;2.07;;
15603;SDS011;7902;49.042;9.092;2022-11-20T05:41:10;10.07;;;2.30;;
15603;SDS011;7902;49.042;9.092;2022-11-20T05:43:38;8.47;;;1.77;;
15603;SDS011;7902;49.042;9.092;2022-11-20T05:46:06;8.10;;;1.70;;
15603;SDS011;7902;49.042;9.092;2022-11-20T05:48:33;11.20;;;1.90;;
15603;SDS011;7902;49.042;9.092;2022-11-20T05:51:01;10.30;;;2.00;;
15603;SDS011;7902;49.042;9.092;2022-11-20T05:53:28;8.70;;;1.87;;
15603;SDS011;7902;49.042;9.092;2022-11-20T05:56:00;12.80;;;1.83;;
15603;SDS011;7902;49.042;9.092;2022-11-20T05:58:30;8.00;;;1.67;;
15603;SDS011;7902;49.042;9.092;2022-11-20T06:03:42;16.40;;;1.80;;
15603;SDS011;7902;49.042;9.092;2022-11-20T06:06:11;8.40;;;1.60;;
15603;SDS011;7902;49.042;9.092;2022-11-20T06:08:37;8.30;;;1.93;;
15603;SDS011;7902;49.042;9.092;2022-11-20T06:11:04;11.10;;;1.90;;
15603;SDS011;7902;49.042;9.092;2022-11-20T06:13:31;9.07;;;2.00;;
15603;SDS011;7902;49.042;9.092;2022-11-20T06:15:57;11.10;;;2.23;;
15603;SDS011;7902;49.042;9.092;2022-11-20T06:18:25;8.20;;;1.57;;
15603;SDS011;7902;49.042;9.092;2022-11-20T06:20:58;8.87;;;1.43;;
15603;SDS011;7902;49.042;9.092;2022-11-20T06:23:27;8.20;;;1.27;;
15603;SDS011;7902;49.042;9.092;2022-11-20T06:25:53;7.87;;;1.37;;
15603;SDS011;7902;49.042;9.092;2022-11-20T06:28:19;7.60;;;1.20;;
15603;SDS011;7902;49.042;9.092;2022-11-20T06:30:45;9.97;;;1.60;;
15603;SDS011;7902;49.042;9.092;2022-11-20T06:33:11;11.90;;;2.10;;
15603;SDS011;7902;49.042;9.092;2022-11-20T06:35:37;8.33;;;1.50;;
15603;SDS011;7902;49.042;9.092;2022-11-20T06:38:03;8.30;;;1.50;;
15603;SDS011;7902;49.042;9.092;2022-11-20T06:40:29;9.30;;;1.60;;
15603;SDS011;7902;49.042;9.092;2022-11-20T06:42:55;7.27;;;1.17;;
15603;SDS011;7902;49.042;9.092;2022-11-20T06:45:21;10.27;;;1.50;;
15603;SDS011;7902;49.042;9.092;2022-11-20T06:47:47;8.37;;;1.23;;
15603;SDS011;7902;49.042;9.092;2022-11-20T06:50:13;9.43;;;1.40;;
15603;SDS011;7902;49.042;9.092;2022-11-20T06:52:39;10.57;;;1.30;;
15603;SDS011;7902;49.042;9.092;2022-11-20T06:55:05;7.87;;;1.10;;
15603;SDS011;7902;49.042;9.092;2022-11-20T06:57:31;8.43;;;1.13;;
15603;SDS011;7902;49.042;9.092;2022-11-20T06:59:57;7.50;;;1.20;;
15603;SDS011;7902;49.042;9.092;2022-11-20T07:02:23;8.80;;;1.40;;
15603;SDS011;7902;49.042;9.092;2022-11-20T07:04:49;9.33;;;1.70;;
15603;SDS011;7902;49.042;9.092;2022-11-20T07:07:15;8.27;;;1.70;;
15603;SDS011;7902;49.042;9.092;2022-11-20T07:09:40;12.63;;;2.27;;
15603;SDS011;7902;49.042;9.092;2022-11-20T07:12:06;8.40;;;1.60;;
15603;SDS011;7902;49.042;9.092;2022-11-20T07:14:32;12.90;;;2.03;;
15603;SDS011;7902;49.042;9.092;2022-11-20T07:16:58;12.20;;;2.17;;
15603;SDS011;7902;49.042;9.092;2022-11-20T07:19:24;10.20;;;1.80;;
15603;SDS011;7902;49.042;9.092;2022-11-20T07:21:50;10.30;;;1.87;;
15603;SDS011;7902;49.042;9.092;2022-11-20T07:24:16;11.50;;;2.00;;
15603;SDS011;7902;49.042;9.092;2022-11-20T07:26:42;9.97;;;1.53;;
15603;SDS011;7902;49.042;9.092;2022-11-20T07:29:07;8.07;;;1.30;;
15603;SDS011;7902;49.042;9.092;2022-11-20T07:31:33;7.00;;;1.40;;
15603;SDS011;7902;49.042;9.092;2022-11-20T07:33:59;8.87;;;1.63;;
15603;SDS011;7902;49.042;9.092;2022-11-20T07:36:25;8.87;;;1.50;;
15603;SDS011;7902;49.042;9.092;2022-11-20T07:38:51;7.87;;;1.60;;
15603;SDS011;7902;49.042;9.092;2022-11-20T07:41:17;8.70;;;1.50;;
15603;SDS011;7902;49.042;9.092;2022-11-20T07:43:43;8.07;;;1.70;;
15603;SDS011;7902;49.042;9.092;2022-11-20T07:46:09;9.90;;;1.90;;
15603;SDS011;7902;49.042;9.092;2022-11-20T07:48:35;7.77;;;1.60;;
15603;SDS011;7902;49.042;9.092;2022-11-20T07:51:00;10.63;;;1.63;;
15603;SDS011;7902;49.042;9.092;2022-11-20T07:53:26;11.90;;;2.13;;
15603;SDS011;7902;49.042;9.092;2022-11-20T07:55:52;10.30;;;1.50;;
15603;SDS011;7902;49.042;9.092;2022-11-20T07:58:19;9.80;;;1.57;;
15603;SDS011;7902;49.042;9.092;2022-11-20T08:00:45;8.20;;;1.80;;
15603;SDS011;7902;49.042;9.092;2022-11-20T08:03:11;8.50;;;1.23;;
15603;SDS011;7902;49.042;9.092;2022-11-20T08:05:37;11.97;;;2.63;;
15603;SDS011;7902;49.042;9.092;2022-11-20T08:08:03;9.93;;;1.67;;
15603;SDS011;7902;49.042;9.092;2022-11-20T08:10:29;12.07;;;2.37;;
15603;SDS011;7902;49.042;9.092;2022-11-20T08:12:55;11.27;;;1.90;;
15603;SDS011;7902;49.042;9.092;2022-11-20T08:15:39;9.67;;;1.73;;
15603;SDS011;7902;49.042;9.092;2022-11-20T08:18:07;9.30;;;1.60;;
15603;SDS011;7902;49.042;9.092;2022-11-20T08:20:34;10.80;;;2.17;;
15603;SDS011;7902;49.042;9.092;2022-11-20T08:23:01;8.13;;;1.30;;
15603;SDS011;7902;49.042;9.092;2022-11-20T08:25:28;9.57;;;2.03;;
15603;SDS011;7902;49.042;9.092;2022-11-20T08:27:58;9.37;;;1.83;;
15603;SDS011;7902;49.042;9.092;2022-11-20T08:30:25;13.00;;;2.50;;
15603;SDS011;7902;49.042;9.092;2022-11-20T08:32:52;11.20;;;2.17;;
15603;SDS011;7902;49.042;9.092;2022-11-20T08:35:19;8.43;;;1.80;;
15603;SDS011;7902;49.042;9.092;2022-11-20T08:37:46;15.67;;;3.13;;
15603;SDS011;7902;49.042;9.092;2022-11-20T08:40:13;17.47;;;5.00;;
15603;SDS011;7902;49.042;9.092;2022-11-20T08:42:45;15.10;;;3.40;;
15603;SDS011;7902;49.042;9.092;2022-11-20T08:45:15;8.50;;;1.73;;
15603;SDS011;7902;49.042;9.092;2022-11-20T08:47:43;10.17;;;1.90;;
15603;SDS011;7902;49.042;9.092;2022-11-20T08:50:10;8.13;;;1.60;;
15603;SDS011;7902;49.042;9.092;2022-11-20T08:52:37;8.60;;;1.67;;
15603;SDS011;7902;49.042;9.092;2022-11-20T08:55:04;9.33;;;1.70;;
15603;SDS011;7902;49.042;9.092;2022-11-20T08:57:37;9.70;;;1.83;;
15603;SDS011;7902;49.042;9.092;2022-11-20T09:00:05;10.27;;;2.63;;
15603;SDS011;7902;49.042;9.092;2022-11-20T09:02:32;15.10;;;3.47;;
15603;SDS011;7902;49.042;9.092;2022-11-20T09:04:58;9.90;;;2.80;;
15603;SDS011;7902;49.042;9.092;2022-11-20T09:07:24;8.20;;;1.90;;
15603;SDS011;7902;49.042;9.092;2022-11-20T09:09:50;7.03;;;1.20;;
15603;SDS011;7902;49.042;9.092;2022-11-20T09:12:16;6.87;;;1.00;;
15603;SDS011;7902;49.042;9.092;2022-11-20T09:14:42;8.10;;;1.50;;
15603;SDS011;7902;49.042;9.092;2022-11-20T09:17:09;10.60;;;2.60;;
15603;SDS011;7902;49.042;9.092;2022-11-20T09:19:38;15.30;;;3.90;;
15603;SDS011;7902;49.042;9.092;2022-11-20T09:22:05;9.77;;;2.60;;
15603;SDS011;7902;49.042;9.092;2022-11-20T09:24:31;8.20;;;1.80;;
15603;SDS011;7902;49.042;9.092;2022-11-20T09:26:57;10.10;;;2.23;;
15603;SDS011;7902;49.042;9.092;2022-11-20T09:29:23;10.90;;;2.33;;
15603;SDS011;7902;49.042;9.092;2022-11-20T09:31:49;11.47;;;2.70;;
15603;SDS011;7902;49.042;9.092;2022-11-20T09:34:15;12.50;;;2.60;;
15603;SDS011;7902;49.042;9.092;2022-11-20T09:36:41;10.77;;;3.00;;
15603;SDS011;7902;49.042;9.092;2022-11-20T09:39:07;15.20;;;3.00;;
15603;SDS011;7902;49.042;9.092;2022-11-20T09:44:32;8.37;;;2.00;;
15603;SDS011;7902;49.042;9.092;2022-11-20T09:47:55;8.63;;;1.87;;
15603;SDS011;7902;49.042;9.092;2022-11-20T09:53:19;10.70;;;2.77;;
15603;SDS011;7902;49.042;9.092;2022-11-20T09:55:52;10.57;;;2.50;;
15603;SDS011;7902;49.042;9.092;2022-11-20T09:58:24;10.13;;;2.13;;
15603;SDS011;7902;49.042;9.092;2022-11-20T10:00:56;10.43;;;2.43;;
15603;SDS011;7902;49.042;9.092;2022-11-20T10:03:51;13.33;;;2.47;;
15603;SDS011;7902;49.042;9.092;2022-11-20T10:06:28;10.57;;;2.93;;
15603;SDS011;7902;49.042;9.092;2022-11-20T10:08:59;14.73;;;4.47;;
15603;SDS011;7902;49.042;9.092;2022-11-20T10:16:53;10.50;;;2.70;;
15603;SDS011;7902;49.042;9.092;2022-11-20T10:27:31;11.87;;;2.90;;
15603;SDS011;7902;49.042;9.092;2022-11-20T10:30:03;56.23;;;23.20;;
15603;SDS011;7902;49.042;9.092;2022-11-20T10:32:38;18.60;;;5.23;;
15603;SDS011;7902;49.042;9.092;2022-11-20T10:35:09;22.00;;;7.13;;
15603;SDS011;7902;49.042;9.092;2022-11-20T10:37:41;11.70;;;3.20;;
15603;SDS011;7902;49.042;9.092;2022-11-20T10:43:28;17.50;;;5.43;;
15603;SDS011;7902;49.042;9.092;2022-11-20T10:46:00;18.30;;;3.20;;
15603;SDS011;7902;49.042;9.092;2022-11-20T10:48:31;26.60;;;9.10;;
15603;SDS011;7902;49.042;9.092;2022-11-20T10:51:00;15.10;;;3.47;;
15603;SDS011;7902;49.042;9.092;2022-11-20T10:53:54;15.83;;;4.47;;
15603;SDS011;7902;49.042;9.092;2022-11-20T10:56:26;30.43;;;6.00;;
15603;SDS011;7902;49.042;9.092;2022-11-20T11:05:10;18.57;;;4.43;;
15603;SDS011;7902;49.042;9.092;2022-11-20T11:07:38;10.70;;;1.83;;
15603;SDS011;7902;49.042;9.092;2022-11-20T11:10:13;12.70;;;3.43;;
15603;SDS011;7902;49.042;9.092;2022-11-20T11:12:48;20.53;;;6.83;;
15603;SDS011;7902;49.042;9.092;2022-11-20T11:15:24;11.60;;;3.23;;
15603;SDS011;7902;49.042;9.092;2022-11-20T11:17:51;12.03;;;3.43;;
15603;SDS011;7902;49.042;9.092;2022-11-20T11:20:19;12.77;;;3.00;;
15603;SDS011;7902;49.042;9.092;2022-11-20T11:22:50;14.60;;;2.80;;
15603;SDS011;7902;49.042;9.092;2022-11-20T11:25:22;39.40;;;14.50;;
15603;SDS011;7902;49.042;9.092;2022-11-20T11:27:52;57.03;;;20.33;;
15603;SDS011;7902;49.042;9.092;2022-11-20T11:30:20;32.57;;;8.50;;
15603;SDS011;7902;49.042;9.092;2022-11-20T11:32:47;119.83;;;36.30;;
15603;SDS011;7902;49.042;9.092;2022-11-20T11:37:45;28.20;;;7.40;;
15603;SDS011;7902;49.042;9.092;2022-11-20T11:40:13;47.30;;;14.00;;
15603;SDS011;7902;49.042;9.092;2022-11-20T11:42:43;52.50;;;15.37;;
15603;SDS011;7902;49.042;9.092;2022-11-20T11:45:14;28.33;;;7.80;;
15603;SDS011;7902;49.042;9.092;2022-11-20T11:55:07;200.53;;;54.50;;
15603;SDS011;7902;49.042;9.092;2022-11-20T11:57:52;68.57;;;21.13;;
15603;SDS011;7902;49.042;9.092;2022-11-20T12:00:23;149.20;;;45.43;;
15603;SDS011;7902;49.042;9.092;2022-11-20T12:02:53;31.87;;;10.20;;
15603;SDS011;7902;49.042;9.092;2022-11-20T12:05:32;105.07;;;33.50;;
15603;SDS011;7902;49.042;9.092;2022-11-20T12:15:44;18.43;;;4.43;;
15603;SDS011;7902;49.042;9.092;2022-11-20T12:18:14;35.03;;;10.50;;
15603;SDS011;7902;49.042;9.092;2022-11-20T12:20:45;29.83;;;8.70;;
15603;SDS011;7902;49.042;9.092;2022-11-20T12:23:27;13.43;;;3.00;;
15603;SDS011;7902;49.042;9.092;2022-11-20T12:26:00;17.20;;;2.73;;
15603;SDS011;7902;49.042;9.092;2022-11-20T12:28:52;17.60;;;4.10;;
15603;SDS011;7902;49.042;9.092;2022-11-20T12:36:48;13.73;;;3.10;;
15603;SDS011;7902;49.042;9.092;2022-11-20T12:42:43;16.20;;;2.70;;
15603;SDS011;7902;49.042;9.092;2022-11-20T12:48:23;34.23;;;10.67;;
15603;SDS011;7902;49.042;9.092;2022-11-20T12:54:01;24.10;;;4.47;;
15603;SDS011;7902;49.042;9.092;2022-11-20T12:56:53;15.90;;;3.90;;
15603;SDS011;7902;49.042;9.092;2022-11-20T13:07:41;19.97;;;3.97;;
15603;SDS011;7902;49.042;9.092;2022-11-20T13:13:10;12.77;;;2.30;;
15603;SDS011;7902;49.042;9.092;2022-11-20T13:15:44;16.57;;;3.90;;
15603;SDS011;7902;49.042;9.092;2022-11-20T13:18:18;17.03;;;4.33;;
15603;SDS011;7902;49.042;9.092;2022-11-20T13:20:45;12.70;;;2.00;;
15603;SDS011;7902;49.042;9.092;2022-11-20T13:23:22;16.23;;;3.90;;
15603;SDS011;7902;49.042;9.092;2022-11-20T13:26:02;22.97;;;5.03;;
15603;SDS011;7902;49.042;9.092;2022-11-20T13:28:39;13.60;;;2.60;;
15603;SDS011;7902;49.042;9.092;2022-11-20T13:31:09;12.10;;;1.67;;
15603;SDS011;7902;49.042;9.092;2022-11-20T13:33:51;17.47;;;5.40;;
15603;SDS011;7902;49.042;9.092;2022-11-20T13:36:21;19.90;;;3.20;;
15603;SDS011;7902;49.042;9.092;2022-11-20T13:38:53;13.97;;;3.27;;
15603;SDS011;7902;49.042;9.092;2022-11-20T13:41:38;32.07;;;11.37;;
15603;SDS011;7902;49.042;9.092;2022-11-20T13:44:29;38.57;;;11.00;;
15603;SDS011;7902;49.042;9.092;2022-11-20T13:47:00;18.43;;;2.10;;
15603;SDS011;7902;49.042;9.092;2022-11-20T13:49:28;10.80;;;2.00;;
15603;SDS011;7902;49.042;9.092;2022-11-20T13:52:01;11.73;;;2.13;;
15603;SDS011;7902;49.042;9.092;2022-11-20T14:00:19;37.60;;;10.67;;
15603;SDS011;7902;49.042;9.092;2022-11-20T14:06:03;15.83;;;3.10;;
15603;SDS011;7902;49.042;9.092;2022-11-20T14:08:37;18.20;;;2.23;;
15603;SDS011;7902;49.042;9.092;2022-11-20T14:11:14;19.63;;;3.97;;
15603;SDS011;7902;49.042;9.092;2022-11-20T14:14:01;12.27;;;2.20;;
15603;SDS011;7902;49.042;9.092;2022-11-20T14:16:40;16.53;;;3.00;;
15603;SDS011;7902;49.042;9.092;2022-11-20T14:22:47;15.47;;;2.60;;
15603;SDS011;7902;49.042;9.092;2022-11-20T14:25:03;15.90;;;3.20;;
15603;SDS011;7902;49.042;9.092;2022-11-20T14:27:32;11.57;;;2.33;;
15603;SDS011;7902;49.042;9.092;2022-11-20T14:30:00;11.17;;;1.33;;
15603;SDS011;7902;49.042;9.092;2022-11-20T14:32:27;13.33;;;2.50;;
15603;SDS011;7902;49.042;9.092;2022-11-20T14:34:54;13.93;;;1.60;;
15603;SDS011;7902;49.042;9.092;2022-11-20T14:37:33;15.60;;;3.10;;
15603;SDS011;7902;49.042;9.092;2022-11-20T14:40:23;26.20;;;6.63;;
15603;SDS011;7902;49.042;9.092;2022-11-20T14:42:52;31.13;;;8.40;;
15603;SDS011;7902;49.042;9.092;2022-11-20T14:45:18;35.97;;;11.30;;
15603;SDS011;7902;49.042;9.092;2022-11-20T14:47:45;24.67;;;6.37;;
15603;SDS011;7902;49.042;9.092;2022-11-20T14:50:19;29.43;;;9.93;;
15603;SDS011;7902;49.042;9.092;2022-11-20T14:52:54;81.03;;;28.07;;
15603;SDS011;7902;49.042;9.092;2022-11-20T14:55:31;145.67;;;48.33;;
15603;SDS011;7902;49.042;9.092;2022-11-20T14:57:59;66.40;;;22.33;;
15603;SDS011;7902;49.042;9.092;2022-11-20T15:00:30;85.17;;;32.23;;
15603;SDS011;7902;49.042;9.092;2022-11-20T15:02:57;45.60;;;17.70;;
15603;SDS011;7902;49.042;9.092;2022-11-20T15:05:44;64.10;;;26.40;;
15603;SDS011;7902;49.042;9.092;2022-11-20T15:08:11;29.30;;;10.80;;
15603;SDS011;7902;49.042;9.092;2022-11-20T15:10:38;28.57;;;9.97;;
15603;SDS011;7902;49.042;9.092;2022-11-20T15:13:11;19.67;;;4.57;;
15603;SDS011;7902;49.042;9.092;2022-11-20T15:18:16;30.97;;;12.03;;
15603;SDS011;7902;49.042;9.092;2022-11-20T15:20:45;34.53;;;7.67;;
15603;SDS011;7902;49.042;9.092;2022-11-20T15:23:12;24.07;;;9.43;;
15603;SDS011;7902;49.042;9.092;2022-11-20T15:25:39;29.70;;;12.30;;
15603;SDS011;7902;49.042;9.092;2022-11-20T15:28:13;29.00;;;9.97;;
15603;SDS011;7902;49.042;9.092;2022-11-20T15:30:39;29.20;;;11.53;;
15603;SDS011;7902;49.042;9.092;2022-11-20T15:33:07;34.00;;;15.07;;
15603;SDS011;7902;49.042;9.092;2022-11-20T15:35:34;33.63;;;14.80;;
15603;SDS011;7902;49.042;9.092;2022-11-20T15:38:00;39.90;;;16.37;;
15603;SDS011;7902;49.042;9.092;2022-11-20T15:40:25;18.20;;;5.27;;
15603;SDS011;7902;49.042;9.092;2022-11-20T15:42:51;15.80;;;4.80;;
15603;SDS011;7902;49.042;9.092;2022-11-20T15:45:33;23.93;;;5.97;;
15603;SDS011;7902;49.042;9.092;2022-11-20T15:48:12;31.50;;;9.90;;
15603;SDS011;7902;49.042;9.092;2022-11-20T15:53:19;43.47;;;13.77;;
15603;SDS011;7902;49.042;9.092;2022-11-20T15:55:45;27.67;;;8.70;;
15603;SDS011;7902;49.042;9.092;2022-11-20T15:58:11;100.70;;;33.40;;
15603;SDS011;7902;49.042;9.092;2022-11-20T16:00:37;45.13;;;15.00;;
15603;SDS011;7902;49.042;9.092;2022-11-20T16:03:03;49.07;;;18.27;;
15603;SDS011;7902;49.042;9.092;2022-11-20T16:05:29;35.40;;;13.10;;
15603;SDS011;7902;49.042;9.092;2022-11-20T16:07:55;28.67;;;8.97;;
15603;SDS011;7902;49.042;9.092;2022-11-20T16:10:22;38.00;;;12.10;;
15603;SDS011;7902;49.042;9.092;2022-11-20T16:12:49;40.50;;;10.40;;
15603;SDS011;7902;49.042;9.092;2022-11-20T16:15:33;21.10;;;5.93;;
15603;SDS011;7902;49.042;9.092;2022-11-20T16:18:12;29.20;;;7.03;;
15603;SDS011;7902;49.042;9.092;2022-11-20T16:20:43;29.90;;;8.53;;
15603;SDS011;7902;49.042;9.092;2022-11-20T16:23:10;18.57;;;5.37;;
15603;SDS011;7902;49.042;9.092;2022-11-20T16:25:36;47.70;;;11.40;;
15603;SDS011;7902;49.042;9.092;2022-11-20T16:28:02;15.63;;;4.30;;
15603;SDS011;7902;49.042;9.092;2022-11-20T16:30:29;22.33;;;4.67;;
15603;SDS011;7902;49.042;9.092;2022-11-20T16:32:57;24.63;;;7.37;;
15603;SDS011;7902;49.042;9.092;2022-11-20T16:35:25;16.93;;;4.63;;
15603;SDS011;7902;49.042;9.092;2022-11-20T16:37:53;15.10;;;4.33;;